sensor_id;sensor_type;location;lat;lon;timestamp;pressure;altitude;pressure_sealevel;temperature;humidity
56671;BME280;42545;50.054;8.306;2023-03-04T00:02:24;100774.75;;;-1.23;99.00
56671;BME280;42545;50.054;8.306;2023-03-04T00:04:51;100777.47;;;-1.21;99.05
56671;BME280;42545;50.054;8.306;2023-03-04T00:07:20;100775.38;;;-1.15;99.51
56671;BME280;42545;50.054;8.306;2023-03-04T00:09:47;100771.97;;;-1.14;99.53
56671;BME280;42545;50.054;8.306;2023-03-04T00:12:13;100774.00;;;-1.10;99.44
56671;BME280;42545;50.054;8.306;2023-03-04T00:14:42;100768.94;;;-1.08;98.89
56671;BME280;42545;50.054;8.306;2023-03-04T00:17:09;100783.47;;;-1.10;98.77
56671;BME280;42545;50.054;8.306;2023-03-04T00:19:36;100785.94;;;-1.12;98.70
56671;BME280;42545;50.054;8.306;2023-03-04T00:22:04;100778.59;;;-1.18;98.85
56671;BME280;42545;50.054;8.306;2023-03-04T00:24:32;100783.53;;;-1.21;98.41
56671;BME280;42545;50.054;8.306;2023-03-04T00:27:00;100783.88;;;-1.28;98.08
56671;BME280;42545;50.054;8.306;2023-03-04T00:29:28;100783.19;;;-1.37;97.68
56671;BME280;42545;50.054;8.306;2023-03-04T00:31:55;100785.88;;;-1.47;97.59
56671;BME280;42545;50.054;8.306;2023-03-04T00:34:22;100782.03;;;-1.52;97.89
56671;BME280;42545;50.054;8.306;2023-03-04T00:36:49;100782.59;;;-1.57;98.13
56671;BME280;42545;50.054;8.306;2023-03-04T00:39:16;100785.50;;;-1.64;97.96
56671;BME280;42545;50.054;8.306;2023-03-04T00:41:45;100788.50;;;-1.69;98.23
56671;BME280;42545;50.054;8.306;2023-03-04T00:44:12;100777.78;;;-1.74;98.61
56671;BME280;42545;50.054;8.306;2023-03-04T00:46:39;100783.66;;;-1.77;98.77
56671;BME280;42545;50.054;8.306;2023-03-04T00:49:05;100780.81;;;-1.80;99.40
56671;BME280;42545;50.054;8.306;2023-03-04T00:51:33;100778.91;;;-1.82;99.68
56671;BME280;42545;50.054;8.306;2023-03-04T00:53:59;100780.69;;;-1.81;99.89
56671;BME280;42545;50.054;8.306;2023-03-04T00:56:27;100772.59;;;-1.86;99.88
56671;BME280;42545;50.054;8.306;2023-03-04T00:58:55;100776.97;;;-1.85;100.00
56671;BME280;42545;50.054;8.306;2023-03-04T01:01:22;100771.03;;;-1.84;100.00
56671;BME280;42545;50.054;8.306;2023-03-04T01:03:50;100770.22;;;-1.83;100.00
56671;BME280;42545;50.054;8.306;2023-03-04T01:06:17;100768.44;;;-1.84;100.00
56671;BME280;42545;50.054;8.306;2023-03-04T01:08:44;100768.56;;;-1.82;100.00
56671;BME280;42545;50.054;8.306;2023-03-04T01:11:11;100764.28;;;-1.82;100.00
56671;BME280;42545;50.054;8.306;2023-03-04T01:13:37;100755.38;;;-1.85;100.00
56671;BME280;42545;50.054;8.306;2023-03-04T01:16:07;100771.16;;;-1.82;100.00
56671;BME280;42545;50.054;8.306;2023-03-04T01:18:35;100764.84;;;-1.86;100.00
56671;BME280;42545;50.054;8.306;2023-03-04T01:21:01;100760.56;;;-1.85;100.00
56671;BME280;42545;50.054;8.306;2023-03-04T01:23:28;100763.13;;;-1.85;100.00
56671;BME280;42545;50.054;8.306;2023-03-04T01:25:55;100763.91;;;-1.86;100.00
56671;BME280;42545;50.054;8.306;2023-03-04T01:28:22;100754.38;;;-1.87;100.00
56671;BME280;42545;50.054;8.306;2023-03-04T01:30:49;100749.84;;;-1.90;100.00
56671;BME280;42545;50.054;8.306;2023-03-04T01:33:17;100748.94;;;-1.90;100.00
56671;BME280;42545;50.054;8.306;2023-03-04T01:35:44;100744.56;;;-1.91;100.00
56671;BME280;42545;50.054;8.306;2023-03-04T01:38:11;100734.88;;;-1.94;100.00
56671;BME280;42545;50.054;8.306;2023-03-04T01:40:38;100736.31;;;-1.98;100.00
56671;BME280;42545;50.054;8.306;2023-03-04T01:43:05;100728.44;;;-1.99;100.00
56671;BME280;42545;50.054;8.306;2023-03-04T01:45:33;100733.59;;;-1.99;100.00
56671;BME280;42545;50.054;8.306;2023-03-04T01:48:00;100726.53;;;-2.02;100.00
56671;BME280;42545;50.054;8.306;2023-03-04T01:50:31;100718.53;;;-2.05;100.00
56671;BME280;42545;50.054;8.306;2023-03-04T01:52:58;100719.84;;;-2.10;100.00
56671;BME280;42545;50.054;8.306;2023-03-04T01:55:28;100712.53;;;-2.16;100.00
56671;BME280;42545;50.054;8.306;2023-03-04T01:57:55;100716.56;;;-2.19;100.00
56671;BME280;42545;50.054;8.306;2023-03-04T02:00:27;100712.81;;;-2.23;100.00
56671;BME280;42545;50.054;8.306;2023-03-04T02:02:57;100717.91;;;-2.24;100.00
56671;BME280;42545;50.054;8.306;2023-03-04T02:05:26;100712.50;;;-2.27;100.00
56671;BME280;42545;50.054;8.306;2023-03-04T02:07:56;100700.63;;;-2.36;100.00
56671;BME280;42545;50.054;8.306;2023-03-04T02:10:24;100704.03;;;-2.37;100.00
56671;BME280;42545;50.054;8.306;2023-03-04T02:12:51;100702.88;;;-2.40;100.00
56671;BME280;42545;50.054;8.306;2023-03-04T02:15:18;100701.75;;;-2.44;100.00
56671;BME280;42545;50.054;8.306;2023-03-04T02:17:48;100702.03;;;-2.51;100.00
56671;BME280;42545;50.054;8.306;2023-03-04T02:20:24;100694.16;;;-2.53;100.00
56671;BME280;42545;50.054;8.306;2023-03-04T02:23:00;100701.78;;;-2.54;100.00
56671;BME280;42545;50.054;8.306;2023-03-04T02:25:34;100712.66;;;-2.58;100.00
56671;BME280;42545;50.054;8.306;2023-03-04T02:28:03;100695.13;;;-2.62;100.00
56671;BME280;42545;50.054;8.306;2023-03-04T02:30:33;100700.16;;;-2.64;100.00
56671;BME280;42545;50.054;8.306;2023-03-04T02:33:01;100695.53;;;-2.68;100.00
56671;BME280;42545;50.054;8.306;2023-03-04T02:35:28;100695.28;;;-2.71;100.00
56671;BME280;42545;50.054;8.306;2023-03-04T02:37:56;100698.63;;;-2.72;100.00
56671;BME280;42545;50.054;8.306;2023-03-04T02:40:26;100692.72;;;-2.71;100.00
56671;BME280;42545;50.054;8.306;2023-03-04T02:42:57;100678.41;;;-2.78;100.00
56671;BME280;42545;50.054;8.306;2023-03-04T02:45:37;100683.56;;;-2.78;100.00
56671;BME280;42545;50.054;8.306;2023-03-04T02:48:05;100690.28;;;-2.80;100.00
56671;BME280;42545;50.054;8.306;2023-03-04T02:50:35;100690.16;;;-2.81;100.00
56671;BME280;42545;50.054;8.306;2023-03-04T02:53:03;100684.66;;;-2.86;100.00
56671;BME280;42545;50.054;8.306;2023-03-04T02:55:30;100687.88;;;-2.88;100.00
56671;BME280;42545;50.054;8.306;2023-03-04T02:57:57;100686.97;;;-2.89;100.00
56671;BME280;42545;50.054;8.306;2023-03-04T03:00:24;100677.19;;;-2.93;100.00
56671;BME280;42545;50.054;8.306;2023-03-04T03:02:52;100688.19;;;-2.96;100.00
56671;BME280;42545;50.054;8.306;2023-03-04T03:05:21;100688.81;;;-2.98;100.00
56671;BME280;42545;50.054;8.306;2023-03-04T03:07:49;100691.69;;;-3.05;100.00
56671;BME280;42545;50.054;8.306;2023-03-04T03:10:16;100688.47;;;-3.03;100.00
56671;BME280;42545;50.054;8.306;2023-03-04T03:12:42;100686.78;;;-3.02;100.00
56671;BME280;42545;50.054;8.306;2023-03-04T03:15:10;100688.34;;;-3.04;100.00
56671;BME280;42545;50.054;8.306;2023-03-04T03:17:37;100684.47;;;-2.99;100.00
56671;BME280;42545;50.054;8.306;2023-03-04T03:20:06;100681.88;;;-2.99;100.00
56671;BME280;42545;50.054;8.306;2023-03-04T03:22:33;100681.09;;;-2.98;100.00
56671;BME280;42545;50.054;8.306;2023-03-04T03:24:59;100678.50;;;-2.98;100.00
56671;BME280;42545;50.054;8.306;2023-03-04T03:27:26;100682.91;;;-2.97;100.00
56671;BME280;42545;50.054;8.306;2023-03-04T03:29:53;100679.09;;;-2.91;100.00
56671;BME280;42545;50.054;8.306;2023-03-04T03:32:20;100679.34;;;-2.87;100.00
56671;BME280;42545;50.054;8.306;2023-03-04T03:34:47;100680.63;;;-2.82;100.00
56671;BME280;42545;50.054;8.306;2023-03-04T03:37:16;100680.97;;;-2.78;100.00
56671;BME280;42545;50.054;8.306;2023-03-04T03:39:42;100662.81;;;-2.79;100.00
56671;BME280;42545;50.054;8.306;2023-03-04T03:42:09;100672.94;;;-2.71;100.00
56671;BME280;42545;50.054;8.306;2023-03-04T03:44:36;100679.38;;;-2.65;100.00
56671;BME280;42545;50.054;8.306;2023-03-04T03:47:04;100676.16;;;-2.63;100.00
56671;BME280;42545;50.054;8.306;2023-03-04T03:49:30;100674.59;;;-2.61;100.00
56671;BME280;42545;50.054;8.306;2023-03-04T03:51:58;100669.63;;;-2.58;100.00
56671;BME280;42545;50.054;8.306;2023-03-04T03:54:28;100668.19;;;-2.54;100.00
56671;BME280;42545;50.054;8.306;2023-03-04T03:56:54;100657.84;;;-2.54;100.00
56671;BME280;42545;50.054;8.306;2023-03-04T03:59:21;100664.53;;;-2.46;100.00
56671;BME280;42545;50.054;8.306;2023-03-04T04:01:48;100671.63;;;-2.43;100.00
56671;BME280;42545;50.054;8.306;2023-03-04T04:04:17;100663.56;;;-2.36;100.00
56671;BME280;42545;50.054;8.306;2023-03-04T04:06:44;100661.47;;;-2.30;100.00
56671;BME280;42545;50.054;8.306;2023-03-04T04:09:10;100667.88;;;-2.25;100.00
56671;BME280;42545;50.054;8.306;2023-03-04T04:11:38;100657.09;;;-2.19;100.00
56671;BME280;42545;50.054;8.306;2023-03-04T04:14:07;100661.88;;;-2.14;100.00
56671;BME280;42545;50.054;8.306;2023-03-04T04:16:34;100659.06;;;-2.05;100.00
56671;BME280;42545;50.054;8.306;2023-03-04T04:19:01;100651.78;;;-1.99;100.00
56671;BME280;42545;50.054;8.306;2023-03-04T04:21:29;100658.19;;;-1.94;100.00
56671;BME280;42545;50.054;8.306;2023-03-04T04:23:56;100656.31;;;-1.84;100.00
56671;BME280;42545;50.054;8.306;2023-03-04T04:26:24;100658.53;;;-1.77;100.00
56671;BME280;42545;50.054;8.306;2023-03-04T04:28:53;100660.03;;;-1.69;100.00
56671;BME280;42545;50.054;8.306;2023-03-04T04:31:20;100664.00;;;-1.62;100.00
56671;BME280;42545;50.054;8.306;2023-03-04T04:33:48;100657.44;;;-1.57;100.00
56671;BME280;42545;50.054;8.306;2023-03-04T04:36:16;100651.94;;;-1.50;100.00
56671;BME280;42545;50.054;8.306;2023-03-04T04:38:43;100663.78;;;-1.42;100.00
56671;BME280;42545;50.054;8.306;2023-03-04T04:41:17;100663.19;;;-1.38;100.00
56671;BME280;42545;50.054;8.306;2023-03-04T04:43:46;100659.97;;;-1.35;100.00
56671;BME280;42545;50.054;8.306;2023-03-04T04:46:16;100657.56;;;-1.32;100.00
56671;BME280;42545;50.054;8.306;2023-03-04T04:48:44;100661.16;;;-1.30;100.00
56671;BME280;42545;50.054;8.306;2023-03-04T04:51:11;100653.63;;;-1.27;100.00
56671;BME280;42545;50.054;8.306;2023-03-04T04:53:38;100652.19;;;-1.23;100.00
56671;BME280;42545;50.054;8.306;2023-03-04T04:56:09;100653.19;;;-1.21;100.00
56671;BME280;42545;50.054;8.306;2023-03-04T04:58:36;100651.84;;;-1.16;100.00
56671;BME280;42545;50.054;8.306;2023-03-04T05:01:08;100652.16;;;-1.11;100.00
56671;BME280;42545;50.054;8.306;2023-03-04T05:03:37;100641.00;;;-1.10;100.00
56671;BME280;42545;50.054;8.306;2023-03-04T05:06:06;100648.31;;;-1.05;100.00
56671;BME280;42545;50.054;8.306;2023-03-04T05:08:34;100652.94;;;-1.01;100.00
56671;BME280;42545;50.054;8.306;2023-03-04T05:11:01;100642.69;;;-0.99;100.00
56671;BME280;42545;50.054;8.306;2023-03-04T05:13:31;100646.94;;;-0.88;100.00
56671;BME280;42545;50.054;8.306;2023-03-04T05:15:58;100642.97;;;-0.83;100.00
56671;BME280;42545;50.054;8.306;2023-03-04T05:18:26;100647.22;;;-0.71;100.00
56671;BME280;42545;50.054;8.306;2023-03-04T05:20:57;100643.50;;;-0.63;100.00
56671;BME280;42545;50.054;8.306;2023-03-04T05:23:26;100639.50;;;-0.46;100.00
56671;BME280;42545;50.054;8.306;2023-03-04T05:25:53;100640.56;;;-0.31;100.00
56671;BME280;42545;50.054;8.306;2023-03-04T05:28:20;100643.31;;;-0.16;100.00
56671;BME280;42545;50.054;8.306;2023-03-04T05:30:47;100642.47;;;-0.03;100.00
56671;BME280;42545;50.054;8.306;2023-03-04T05:33:16;100638.66;;;0.05;100.00
56671;BME280;42545;50.054;8.306;2023-03-04T05:35:44;100635.59;;;0.11;100.00
56671;BME280;42545;50.054;8.306;2023-03-04T05:38:15;100643.00;;;0.18;99.91
56671;BME280;42545;50.054;8.306;2023-03-04T05:40:42;100644.19;;;0.23;98.95
56671;BME280;42545;50.054;8.306;2023-03-04T05:43:09;100642.94;;;0.30;98.56
56671;BME280;42545;50.054;8.306;2023-03-04T05:45:36;100633.75;;;0.35;97.85
56671;BME280;42545;50.054;8.306;2023-03-04T05:48:03;100633.03;;;0.37;98.02
56671;BME280;42545;50.054;8.306;2023-03-04T05:50:32;100639.56;;;0.44;96.82
56671;BME280;42545;50.054;8.306;2023-03-04T05:52:59;100645.84;;;0.48;96.79
56671;BME280;42545;50.054;8.306;2023-03-04T05:55:28;100648.44;;;0.48;96.39
56671;BME280;42545;50.054;8.306;2023-03-04T05:57:55;100646.03;;;0.51;95.89
56671;BME280;42545;50.054;8.306;2023-03-04T06:00:23;100646.13;;;0.52;95.68
56671;BME280;42545;50.054;8.306;2023-03-04T06:02:50;100647.13;;;0.54;95.62
56671;BME280;42545;50.054;8.306;2023-03-04T06:05:18;100647.44;;;0.59;95.42
56671;BME280;42545;50.054;8.306;2023-03-04T06:07:46;100647.06;;;0.66;94.39
56671;BME280;42545;50.054;8.306;2023-03-04T06:10:17;100643.97;;;0.72;94.43
56671;BME280;42545;50.054;8.306;2023-03-04T06:12:46;100642.34;;;0.74;93.89
56671;BME280;42545;50.054;8.306;2023-03-04T06:15:13;100650.25;;;0.75;93.83
56671;BME280;42545;50.054;8.306;2023-03-04T06:17:42;100645.94;;;0.76;93.74
56671;BME280;42545;50.054;8.306;2023-03-04T06:20:10;100647.88;;;0.79;93.51
56671;BME280;42545;50.054;8.306;2023-03-04T06:22:37;100659.25;;;0.81;93.30
56671;BME280;42545;50.054;8.306;2023-03-04T06:25:05;100645.16;;;0.77;93.13
56671;BME280;42545;50.054;8.306;2023-03-04T06:27:32;100667.22;;;0.84;92.70
56671;BME280;42545;50.054;8.306;2023-03-04T06:30:00;100673.34;;;0.84;92.69
56671;BME280;42545;50.054;8.306;2023-03-04T06:32:27;100673.34;;;0.84;92.99
56671;BME280;42545;50.054;8.306;2023-03-04T06:34:55;100679.53;;;0.86;92.73
56671;BME280;42545;50.054;8.306;2023-03-04T06:37:21;100677.81;;;0.87;92.68
56671;BME280;42545;50.054;8.306;2023-03-04T06:39:48;100676.31;;;0.90;92.77
56671;BME280;42545;50.054;8.306;2023-03-04T06:42:15;100680.03;;;0.94;91.91
56671;BME280;42545;50.054;8.306;2023-03-04T06:44:42;100683.72;;;0.98;91.92
56671;BME280;42545;50.054;8.306;2023-03-04T06:47:10;100673.22;;;0.96;91.94
56671;BME280;42545;50.054;8.306;2023-03-04T06:49:37;100669.31;;;0.89;91.79
56671;BME280;42545;50.054;8.306;2023-03-04T06:52:04;100694.59;;;1.05;91.39
56671;BME280;42545;50.054;8.306;2023-03-04T06:54:30;100684.19;;;1.05;91.12
56671;BME280;42545;50.054;8.306;2023-03-04T06:56:57;100693.19;;;1.10;91.72
56671;BME280;42545;50.054;8.306;2023-03-04T06:59:23;100696.91;;;1.14;91.46
56671;BME280;42545;50.054;8.306;2023-03-04T07:01:50;100692.69;;;1.16;91.24
56671;BME280;42545;50.054;8.306;2023-03-04T07:04:20;100693.00;;;1.21;90.55
56671;BME280;42545;50.054;8.306;2023-03-04T07:06:49;100694.88;;;1.23;91.07
56671;BME280;42545;50.054;8.306;2023-03-04T07:09:16;100689.59;;;1.22;90.32
56671;BME280;42545;50.054;8.306;2023-03-04T07:11:43;100693.28;;;1.25;90.25
56671;BME280;42545;50.054;8.306;2023-03-04T07:14:09;100698.06;;;1.32;90.38
56671;BME280;42545;50.054;8.306;2023-03-04T07:16:36;100699.25;;;1.38;90.17
56671;BME280;42545;50.054;8.306;2023-03-04T07:19:04;100708.16;;;1.41;89.60
56671;BME280;42545;50.054;8.306;2023-03-04T07:21:32;100709.06;;;1.42;89.38
56671;BME280;42545;50.054;8.306;2023-03-04T07:24:00;100710.25;;;1.47;88.74
56671;BME280;42545;50.054;8.306;2023-03-04T07:26:26;100714.22;;;1.55;88.95
56671;BME280;42545;50.054;8.306;2023-03-04T07:28:53;100716.13;;;1.58;88.17
56671;BME280;42545;50.054;8.306;2023-03-04T07:31:25;100704.41;;;1.64;88.62
56671;BME280;42545;50.054;8.306;2023-03-04T07:33:55;100712.50;;;1.69;87.92
56671;BME280;42545;50.054;8.306;2023-03-04T07:36:23;100716.19;;;1.72;87.85
56671;BME280;42545;50.054;8.306;2023-03-04T07:38:51;100716.47;;;1.77;87.33
56671;BME280;42545;50.054;8.306;2023-03-04T07:41:19;100713.88;;;1.77;86.73
56671;BME280;42545;50.054;8.306;2023-03-04T07:43:49;100714.44;;;1.86;87.13
56671;BME280;42545;50.054;8.306;2023-03-04T07:46:16;100716.31;;;1.89;86.47
56671;BME280;42545;50.054;8.306;2023-03-04T07:48:43;100716.63;;;1.94;86.40
56671;BME280;42545;50.054;8.306;2023-03-04T07:51:12;100723.91;;;1.99;85.73
56671;BME280;42545;50.054;8.306;2023-03-04T07:53:41;100718.97;;;2.04;85.96
56671;BME280;42545;50.054;8.306;2023-03-04T07:56:16;100710.28;;;2.03;85.47
56671;BME280;42545;50.054;8.306;2023-03-04T07:58:43;100721.25;;;2.13;85.57
56671;BME280;42545;50.054;8.306;2023-03-04T08:01:13;100724.19;;;2.19;85.21
56671;BME280;42545;50.054;8.306;2023-03-04T08:03:42;100712.00;;;2.18;85.26
56671;BME280;42545;50.054;8.306;2023-03-04T08:06:11;100722.09;;;2.26;85.26
56671;BME280;42545;50.054;8.306;2023-03-04T08:08:38;100723.25;;;2.31;84.47
56671;BME280;42545;50.054;8.306;2023-03-04T08:11:07;100716.50;;;2.35;84.25
56671;BME280;42545;50.054;8.306;2023-03-04T08:13:35;100721.03;;;2.38;83.46
56671;BME280;42545;50.054;8.306;2023-03-04T08:16:04;100721.13;;;2.39;82.54
56671;BME280;42545;50.054;8.306;2023-03-04T08:18:32;100723.00;;;2.42;83.22
56671;BME280;42545;50.054;8.306;2023-03-04T08:20:58;100728.66;;;2.49;82.44
56671;BME280;42545;50.054;8.306;2023-03-04T08:23:25;100734.94;;;2.53;83.05
56671;BME280;42545;50.054;8.306;2023-03-04T08:25:52;100733.22;;;2.54;82.48
56671;BME280;42545;50.054;8.306;2023-03-04T08:28:19;100729.09;;;2.57;81.50
56671;BME280;42545;50.054;8.306;2023-03-04T08:30:53;100727.22;;;2.55;82.05
56671;BME280;42545;50.054;8.306;2023-03-04T08:33:20;100731.81;;;2.59;81.82
56671;BME280;42545;50.054;8.306;2023-03-04T08:35:47;100739.91;;;2.63;82.10
56671;BME280;42545;50.054;8.306;2023-03-04T08:38:14;100739.81;;;2.62;81.52
56671;BME280;42545;50.054;8.306;2023-03-04T08:40:41;100733.97;;;2.66;81.22
56671;BME280;42545;50.054;8.306;2023-03-04T08:43:08;100744.47;;;2.67;80.70
56671;BME280;42545;50.054;8.306;2023-03-04T08:45:36;100742.75;;;2.68;80.42
56671;BME280;42545;50.054;8.306;2023-03-04T08:48:04;100738.28;;;2.65;80.29
56671;BME280;42545;50.054;8.306;2023-03-04T08:50:31;100743.06;;;2.73;80.83
56671;BME280;42545;50.054;8.306;2023-03-04T08:52:58;100743.16;;;2.74;80.37
56671;BME280;42545;50.054;8.306;2023-03-04T08:55:25;100746.00;;;2.79;80.54
56671;BME280;42545;50.054;8.306;2023-03-04T08:57:51;100746.09;;;2.80;79.39
56671;BME280;42545;50.054;8.306;2023-03-04T09:00:19;100744.66;;;2.85;79.97
56671;BME280;42545;50.054;8.306;2023-03-04T09:02:46;100734.88;;;2.81;79.49
56671;BME280;42545;50.054;8.306;2023-03-04T09:05:15;100745.66;;;2.87;78.45
56671;BME280;42545;50.054;8.306;2023-03-04T09:07:41;100740.53;;;2.89;78.69
56671;BME280;42545;50.054;8.306;2023-03-04T09:10:10;100745.09;;;2.93;78.99
56671;BME280;42545;50.054;8.306;2023-03-04T09:12:37;100744.56;;;2.99;79.49
56671;BME280;42545;50.054;8.306;2023-03-04T09:15:05;100738.69;;;3.03;79.16
56671;BME280;42545;50.054;8.306;2023-03-04T09:17:32;100741.31;;;3.03;77.72
56671;BME280;42545;50.054;8.306;2023-03-04T09:19:59;100733.56;;;3.04;78.31
56671;BME280;42545;50.054;8.306;2023-03-04T09:22:28;100736.28;;;3.06;77.66
56671;BME280;42545;50.054;8.306;2023-03-04T09:24:54;100741.59;;;3.07;78.01
56671;BME280;42545;50.054;8.306;2023-03-04T09:27:21;100735.38;;;3.05;77.63
56671;BME280;42545;50.054;8.306;2023-03-04T09:29:48;100742.66;;;3.11;77.72
56671;BME280;42545;50.054;8.306;2023-03-04T09:32:14;100740.16;;;3.13;77.01
56671;BME280;42545;50.054;8.306;2023-03-04T09:34:41;100742.03;;;3.15;77.09
56671;BME280;42545;50.054;8.306;2023-03-04T09:37:08;100740.38;;;3.17;77.46
56671;BME280;42545;50.054;8.306;2023-03-04T09:39:36;100740.75;;;3.23;77.25
56671;BME280;42545;50.054;8.306;2023-03-04T09:42:08;100741.97;;;3.30;77.44
56671;BME280;42545;50.054;8.306;2023-03-04T09:44:37;100741.38;;;3.34;76.63
56671;BME280;42545;50.054;8.306;2023-03-04T09:47:10;100743.25;;;3.37;76.56
56671;BME280;42545;50.054;8.306;2023-03-04T09:49:39;100739.00;;;3.39;76.30
56671;BME280;42545;50.054;8.306;2023-03-04T09:52:14;100734.53;;;3.36;75.83
56671;BME280;42545;50.054;8.306;2023-03-04T09:54:59;100741.69;;;3.40;76.48
56671;BME280;42545;50.054;8.306;2023-03-04T09:57:39;100739.38;;;3.45;76.86
56671;BME280;42545;50.054;8.306;2023-03-04T10:00:12;100742.31;;;3.51;76.86
56671;BME280;42545;50.054;8.306;2023-03-04T10:02:50;100739.78;;;3.53;76.13
56671;BME280;42545;50.054;8.306;2023-03-04T10:05:22;100734.81;;;3.57;76.20
56671;BME280;42545;50.054;8.306;2023-03-04T10:07:57;100733.19;;;3.59;75.42
56671;BME280;42545;50.054;8.306;2023-03-04T10:10:31;100735.78;;;3.59;75.31
56671;BME280;42545;50.054;8.306;2023-03-04T10:13:01;100738.47;;;3.61;75.25
56671;BME280;42545;50.054;8.306;2023-03-04T10:15:33;100731.72;;;3.64;75.65
56671;BME280;42545;50.054;8.306;2023-03-04T10:18:06;100731.91;;;3.68;75.46
56671;BME280;42545;50.054;8.306;2023-03-04T10:20:47;100733.78;;;3.70;75.75
56671;BME280;42545;50.054;8.306;2023-03-04T10:23:18;100725.84;;;3.69;74.58
56671;BME280;42545;50.054;8.306;2023-03-04T10:25:50;100730.34;;;3.71;75.57
56671;BME280;42545;50.054;8.306;2023-03-04T10:28:20;100713.81;;;3.71;75.31
56671;BME280;42545;50.054;8.306;2023-03-04T10:30:54;100715.03;;;3.77;75.28
56671;BME280;42545;50.054;8.306;2023-03-04T10:33:25;100713.38;;;3.79;75.04
56671;BME280;42545;50.054;8.306;2023-03-04T10:35:59;100719.94;;;3.88;75.16
56671;BME280;42545;50.054;8.306;2023-03-04T10:38:29;100715.88;;;3.93;75.54
56671;BME280;42545;50.054;8.306;2023-03-04T10:40:58;100713.41;;;3.96;75.01
56671;BME280;42545;50.054;8.306;2023-03-04T10:43:25;100716.19;;;3.99;74.50
56671;BME280;42545;50.054;8.306;2023-03-04T10:45:55;100710.97;;;3.99;74.62
56671;BME280;42545;50.054;8.306;2023-03-04T10:48:24;100711.13;;;4.02;74.88
56671;BME280;42545;50.054;8.306;2023-03-04T10:50:51;100705.72;;;3.99;74.41
56671;BME280;42545;50.054;8.306;2023-03-04T10:53:24;100704.59;;;3.94;73.39
56671;BME280;42545;50.054;8.306;2023-03-04T10:55:52;100700.34;;;3.96;74.28
56671;BME280;42545;50.054;8.306;2023-03-04T10:58:20;100686.31;;;3.94;74.74
56671;BME280;42545;50.054;8.306;2023-03-04T11:00:58;100699.13;;;4.06;75.19
56671;BME280;42545;50.054;8.306;2023-03-04T11:03:29;100693.16;;;4.08;74.96
56671;BME280;42545;50.054;8.306;2023-03-04T11:06:06;100695.59;;;4.05;74.40
56671;BME280;42545;50.054;8.306;2023-03-04T11:08:33;100685.16;;;4.05;74.34
56671;BME280;42545;50.054;8.306;2023-03-04T11:11:02;100694.13;;;4.10;74.56
56671;BME280;42545;50.054;8.306;2023-03-04T11:13:30;100681.06;;;4.10;74.27
56671;BME280;42545;50.054;8.306;2023-03-04T11:15:59;100666.88;;;4.05;74.20
56671;BME280;42545;50.054;8.306;2023-03-04T11:18:30;100690.16;;;4.17;74.25
56671;BME280;42545;50.054;8.306;2023-03-04T11:21:01;100679.03;;;4.21;74.52
56671;BME280;42545;50.054;8.306;2023-03-04T11:23:33;100681.91;;;4.26;74.43
56671;BME280;42545;50.054;8.306;2023-03-04T11:26:03;100684.72;;;4.30;74.62
56671;BME280;42545;50.054;8.306;2023-03-04T11:28:39;100674.44;;;4.33;74.28
56671;BME280;42545;50.054;8.306;2023-03-04T11:31:11;100674.59;;;4.36;73.84
56671;BME280;42545;50.054;8.306;2023-03-04T11:33:43;100677.44;;;4.41;74.71
56671;BME280;42545;50.054;8.306;2023-03-04T11:36:23;100671.41;;;4.42;74.07
56671;BME280;42545;50.054;8.306;2023-03-04T11:38:53;100677.53;;;4.42;73.69
56671;BME280;42545;50.054;8.306;2023-03-04T11:41:24;100678.19;;;4.38;72.94
56671;BME280;42545;50.054;8.306;2023-03-04T11:43:56;100673.78;;;4.37;73.74
56671;BME280;42545;50.054;8.306;2023-03-04T11:46:34;100664.72;;;4.31;73.41
56671;BME280;42545;50.054;8.306;2023-03-04T11:49:16;100654.94;;;4.27;73.85
56671;BME280;42545;50.054;8.306;2023-03-04T11:51:55;100664.41;;;4.24;73.26
56671;BME280;42545;50.054;8.306;2023-03-04T11:54:29;100666.34;;;4.29;73.62
56671;BME280;42545;50.054;8.306;2023-03-04T11:57:01;100655.00;;;4.28;73.76
56671;BME280;42545;50.054;8.306;2023-03-04T11:59:44;100660.25;;;4.28;73.57
56671;BME280;42545;50.054;8.306;2023-03-04T12:02:16;100657.63;;;4.28;73.72
56671;BME280;42545;50.054;8.306;2023-03-04T12:04:58;100653.38;;;4.30;73.66
56671;BME280;42545;50.054;8.306;2023-03-04T12:07:42;100659.75;;;4.35;73.78
56671;BME280;42545;50.054;8.306;2023-03-04T12:10:21;100653.75;;;4.38;74.21
56671;BME280;42545;50.054;8.306;2023-03-04T12:13:10;100643.38;;;4.39;73.55
56671;BME280;42545;50.054;8.306;2023-03-04T12:15:49;100648.09;;;4.47;73.83
56671;BME280;42545;50.054;8.306;2023-03-04T12:18:30;100641.31;;;4.50;73.47
56671;BME280;42545;50.054;8.306;2023-03-04T12:21:09;100639.59;;;4.51;72.40
56671;BME280;42545;50.054;8.306;2023-03-04T12:24:04;100634.53;;;4.54;73.14
56671;BME280;42545;50.054;8.306;2023-03-04T12:26:39;100626.59;;;4.52;72.47
56671;BME280;42545;50.054;8.306;2023-03-04T12:29:14;100628.50;;;4.55;71.83
56671;BME280;42545;50.054;8.306;2023-03-04T12:31:49;100615.63;;;4.59;72.38
56671;BME280;42545;50.054;8.306;2023-03-04T12:34:31;100613.19;;;4.62;71.98
56671;BME280;42545;50.054;8.306;2023-03-04T12:37:10;100617.00;;;4.69;72.12
56671;BME280;42545;50.054;8.306;2023-03-04T12:39:51;100616.63;;;4.79;71.65
56671;BME280;42545;50.054;8.306;2023-03-04T12:42:26;100607.72;;;4.94;72.02
56671;BME280;42545;50.054;8.306;2023-03-04T12:45:02;100603.16;;;5.08;71.19
56671;BME280;42545;50.054;8.306;2023-03-04T12:47:51;100601.16;;;5.22;71.86
56671;BME280;42545;50.054;8.306;2023-03-04T12:50:30;100590.84;;;5.25;70.92
56671;BME280;42545;50.054;8.306;2023-03-04T12:53:02;100592.31;;;5.37;69.39
56671;BME280;42545;50.054;8.306;2023-03-04T12:55:36;100593.53;;;5.46;69.42
56671;BME280;42545;50.054;8.306;2023-03-04T12:58:04;100588.63;;;5.52;68.45
56671;BME280;42545;50.054;8.306;2023-03-04T13:00:51;100585.22;;;5.54;67.68
56671;BME280;42545;50.054;8.306;2023-03-04T13:03:26;100589.91;;;5.62;68.17
56671;BME280;42545;50.054;8.306;2023-03-04T13:06:04;100583.16;;;5.67;67.74